createdAt,value
2022-10-19T00:01:06.123Z,74.78
2022-10-19T00:03:35.585Z,75.33
2022-10-19T00:06:25.863Z,76.12
2022-10-19T00:08:56.159Z,75.27
2022-10-19T00:11:24.045Z,74.87
2022-10-19T00:13:52.366Z,73.93
2022-10-19T00:16:20.514Z,73.46
2022-10-19T00:18:47.862Z,73.63
2022-10-19T00:21:18.430Z,74.32
2022-10-19T00:23:46.210Z,74.50
2022-10-19T00:26:14.200Z,74.60
2022-10-19T00:28:42.346Z,74.37
2022-10-19T00:31:13.127Z,73.23
2022-10-19T00:33:41.179Z,73.15
2022-10-19T00:36:22.554Z,73.50
2022-10-19T00:38:50.636Z,73.68
2022-10-19T00:41:19.335Z,74.76
2022-10-19T00:43:54.090Z,75.92
2022-10-19T00:46:21.888Z,76.46
2022-10-19T00:51:17.451Z,76.62
2022-10-19T00:53:45.148Z,76.04
2022-10-19T00:56:15.325Z,74.27
2022-10-19T00:58:43.643Z,69.16
2022-10-19T01:01:17.766Z,67.69
2022-10-19T01:03:45.855Z,71.69
2022-10-19T01:06:15.140Z,71.85
2022-10-19T01:08:42.508Z,72.68
2022-10-19T01:11:35.520Z,73.15
2022-10-19T01:14:24.054Z,74.28
2022-10-19T01:17:11.484Z,74.88
2022-10-19T01:19:45.495Z,75.05
2022-10-19T01:22:35.146Z,72.99
2022-10-19T01:25:25.015Z,74.80
2022-10-19T01:28:18.503Z,75.30
2022-10-19T01:30:53.347Z,75.21
2022-10-19T01:33:41.483Z,71.36
2022-10-19T01:36:38.018Z,73.16
2022-10-19T01:39:31.143Z,72.07
2022-10-19T01:42:02.367Z,72.94
2022-10-19T01:44:40.131Z,73.78
2022-10-19T01:47:11.341Z,74.35
2022-10-19T01:49:47.273Z,74.08
2022-10-19T01:52:16.300Z,74.28
2022-10-19T01:54:46.276Z,74.58
2022-10-19T01:57:18.467Z,74.25
2022-10-19T01:59:47.574Z,74.30
2022-10-19T02:02:15.260Z,74.66
2022-10-19T02:04:43.217Z,74.26
2022-10-19T02:07:11.606Z,73.47
2022-10-19T02:09:38.977Z,72.85
2022-10-19T02:12:10.321Z,74.71
2022-10-19T02:14:42.627Z,73.08
2022-10-19T02:17:13.885Z,74.04
2022-10-19T02:19:41.625Z,74.75
2022-10-19T02:22:09.743Z,75.41
2022-10-19T02:24:37.432Z,74.84
2022-10-19T02:27:05.919Z,74.93
2022-10-19T02:29:33.965Z,74.96
2022-10-19T02:32:01.957Z,73.89
2022-10-19T02:34:29.660Z,74.81
2022-10-19T02:36:57.202Z,75.72
2022-10-19T02:39:25.324Z,76.33
2022-10-19T02:42:06.228Z,76.19
2022-10-19T02:44:50.813Z,76.33
2022-10-19T02:47:25.658Z,75.51
2022-10-19T02:49:53.868Z,75.33
2022-10-19T02:52:21.261Z,75.94
2022-10-19T02:54:48.702Z,75.75
2022-10-19T02:57:18.828Z,75.20
2022-10-19T02:59:46.406Z,75.69
2022-10-19T03:02:14.873Z,75.38
2022-10-19T03:04:44.252Z,75.77
2022-10-19T03:07:17.948Z,75.43
2022-10-19T03:09:45.608Z,74.89
2022-10-19T03:12:13.816Z,75.13
2022-10-19T03:14:41.438Z,75.53
2022-10-19T03:17:09.370Z,74.28
2022-10-19T03:19:37.198Z,75.61
2022-10-19T03:22:04.970Z,73.69
2022-10-19T03:24:32.625Z,70.56
2022-10-19T03:26:59.994Z,69.47
2022-10-19T03:29:27.410Z,72.23
2022-10-19T03:31:55.563Z,72.06
2022-10-19T03:34:22.932Z,71.90
2022-10-19T03:36:50.331Z,72.71
2022-10-19T03:39:18.055Z,69.68
2022-10-19T03:41:45.491Z,69.94
2022-10-19T03:44:12.880Z,68.79
2022-10-19T03:46:40.849Z,66.95
2022-10-19T03:49:09.414Z,67.07
2022-10-19T03:51:36.824Z,68.02
2022-10-19T03:54:11.652Z,68.80
2022-10-19T03:56:39.135Z,69.27
2022-10-19T03:59:06.999Z,70.64
2022-10-19T04:01:37.048Z,70.29
2022-10-19T04:04:07.193Z,67.22
2022-10-19T04:06:41.614Z,67.01
2022-10-19T04:09:11.814Z,67.66
2022-10-19T04:11:39.267Z,68.19
2022-10-19T04:14:06.737Z,70.42
2022-10-19T04:16:34.445Z,71.08
2022-10-19T04:19:01.861Z,71.80
2022-10-19T04:21:37.157Z,71.30
2022-10-19T04:24:15.573Z,71.71
2022-10-19T04:26:48.180Z,71.96
2022-10-19T04:29:17.009Z,71.36
2022-10-19T04:31:44.942Z,70.09
2022-10-19T04:34:12.336Z,69.80
2022-10-19T04:36:39.969Z,68.85
2022-10-19T04:39:07.947Z,72.02
2022-10-19T04:41:36.912Z,72.53
2022-10-19T04:44:06.666Z,73.79
2022-10-19T04:46:34.036Z,73.06
2022-10-19T04:49:01.673Z,74.64
2022-10-19T04:51:29.417Z,75.66
2022-10-19T04:53:59.587Z,76.20
2022-10-19T04:56:27.753Z,77.24
2022-10-19T04:58:57.525Z,77.23
2022-10-19T05:01:26.239Z,76.97
2022-10-19T05:03:54.813Z,77.35
2022-10-19T05:06:23.177Z,76.10
2022-10-19T05:08:50.817Z,78.64
2022-10-19T05:11:18.776Z,79.08
2022-10-19T05:13:46.512Z,80.04
2022-10-19T05:16:16.632Z,81.07
2022-10-19T05:18:50.903Z,81.67
2022-10-19T05:21:19.301Z,80.98
2022-10-19T05:23:46.693Z,82.49
2022-10-19T05:26:17.564Z,82.85
2022-10-19T05:28:49.747Z,82.27
2022-10-19T05:31:19.140Z,80.05
2022-10-19T05:33:46.970Z,79.64
2022-10-19T05:36:19.947Z,80.33
2022-10-19T05:38:49.540Z,80.92
2022-10-19T05:41:19.726Z,82.47
2022-10-19T05:43:47.753Z,83.39
2022-10-19T05:46:18.264Z,80.03
2022-10-19T05:48:46.577Z,81.92
2022-10-19T05:51:16.624Z,79.60
2022-10-19T05:53:44.473Z,77.53
2022-10-19T05:56:17.603Z,79.28
2022-10-19T05:58:45.632Z,77.79
2022-10-19T06:01:14.214Z,78.26
2022-10-19T06:03:42.079Z,77.36
2022-10-19T06:06:09.579Z,77.03
2022-10-19T06:08:38.311Z,78.97
2022-10-19T06:11:11.884Z,77.02
2022-10-19T06:13:40.191Z,78.64
2022-10-19T06:16:08.981Z,77.07
2022-10-19T06:18:37.587Z,78.10
2022-10-19T06:21:07.346Z,79.40
2022-10-19T06:23:35.278Z,78.60
2022-10-19T06:26:05.977Z,77.43
2022-10-19T06:28:33.741Z,76.05
2022-10-19T06:31:01.630Z,77.26
2022-10-19T06:33:32.238Z,79.45
2022-10-19T06:36:07.326Z,79.39
2022-10-19T06:38:35.060Z,78.03
2022-10-19T06:41:02.844Z,78.05
2022-10-19T06:43:30.559Z,80.72
2022-10-19T06:45:58.576Z,79.55
2022-10-19T06:48:25.963Z,78.77
2022-10-19T06:50:57.748Z,78.07
2022-10-19T06:53:25.838Z,77.78
2022-10-19T06:55:53.309Z,77.19
2022-10-19T06:58:20.735Z,77.86
2022-10-19T07:01:00.775Z,76.73
2022-10-19T07:03:29.455Z,76.90
2022-10-19T07:05:59.846Z,76.96
2022-10-19T07:08:28.685Z,77.43
2022-10-19T07:10:58.854Z,77.12
2022-10-19T07:13:27.739Z,77.44
2022-10-19T07:15:58.955Z,77.40
2022-10-19T07:18:27.208Z,77.03
2022-10-19T07:20:58.754Z,76.40
2022-10-19T07:23:27.712Z,76.95
2022-10-19T07:26:00.758Z,76.83
2022-10-19T07:28:29.597Z,76.89
2022-10-19T07:30:57.266Z,76.67
2022-10-19T07:33:24.790Z,76.21
2022-10-19T07:35:59.295Z,75.45
2022-10-19T07:38:27.381Z,75.23
2022-10-19T07:41:03.400Z,75.28
2022-10-19T07:43:31.149Z,74.54
2022-10-19T07:46:04.369Z,74.43
2022-10-19T07:48:32.348Z,76.00
2022-10-19T07:51:01.514Z,76.88
2022-10-19T07:53:28.967Z,74.99
2022-10-19T07:55:56.599Z,74.03
2022-10-19T07:58:23.916Z,74.72
2022-10-19T08:00:51.364Z,73.85
2022-10-19T08:04:13.809Z,73.84
2022-10-19T08:06:08.704Z,72.40
2022-10-19T08:08:37.204Z,73.61
2022-10-19T08:11:08.255Z,70.02
2022-10-19T08:13:36.014Z,69.70
2022-10-19T08:16:03.965Z,67.41
2022-10-19T08:21:02.138Z,69.38
2022-10-19T08:23:29.461Z,67.08
2022-10-19T08:25:59.942Z,69.59
2022-10-19T08:28:27.610Z,68.32
2022-10-19T08:30:58.862Z,69.83
2022-10-19T08:33:26.619Z,67.84
2022-10-19T08:35:54.256Z,70.05
2022-10-19T08:38:21.647Z,67.57
2022-10-19T08:40:48.954Z,67.80
2022-10-19T08:43:37.021Z,66.77
2022-10-19T08:46:38.215Z,68.63
2022-10-19T08:49:08.742Z,66.23
2022-10-19T08:51:38.158Z,66.60
2022-10-19T08:54:12.216Z,62.44
2022-10-19T08:57:05.176Z,60.81
2022-10-19T08:59:56.684Z,60.81
2022-10-19T09:02:54.609Z,61.30
2022-10-19T09:05:34.618Z,60.97
2022-10-19T09:08:02.530Z,59.13
2022-10-19T09:10:36.054Z,56.77
2022-10-19T09:13:21.405Z,57.76
2022-10-19T09:15:50.888Z,54.51
2022-10-19T09:18:23.415Z,55.23
2022-10-19T09:20:56.217Z,55.64
2022-10-19T09:23:30.255Z,54.74
2022-10-19T09:25:58.209Z,53.46
2022-10-19T09:28:47.402Z,53.11
2022-10-19T09:31:30.354Z,52.74
2022-10-19T09:34:14.285Z,53.03
2022-10-19T09:36:50.368Z,51.46
2022-10-19T09:39:18.793Z,49.89
2022-10-19T09:41:50.254Z,47.09
2022-10-19T09:44:18.180Z,47.96
2022-10-19T09:46:52.499Z,49.67
2022-10-19T09:49:42.413Z,47.50
2022-10-19T09:52:36.007Z,48.36
2022-10-19T09:55:07.757Z,51.90
2022-10-19T09:57:42.970Z,50.16
2022-10-19T10:00:21.055Z,50.96
2022-10-19T10:02:53.790Z,49.25
2022-10-19T10:05:31.499Z,46.85
2022-10-19T10:07:59.299Z,45.11
2022-10-19T10:10:53.959Z,47.02
2022-10-19T10:13:24.965Z,46.92
2022-10-19T10:16:01.717Z,46.03
2022-10-19T10:18:30.116Z,45.73
2022-10-19T10:20:59.128Z,46.61
2022-10-19T10:23:29.589Z,45.71
2022-10-19T10:25:58.991Z,44.13
2022-10-19T10:28:28.936Z,46.56
2022-10-19T10:31:05.454Z,43.60
2022-10-19T10:33:44.132Z,43.97
2022-10-19T10:36:12.683Z,43.03
2022-10-19T10:38:47.377Z,43.81
2022-10-19T10:41:17.743Z,44.37
2022-10-19T10:43:54.476Z,46.01
2022-10-19T10:46:25.203Z,43.77
2022-10-19T10:48:57.280Z,43.58
2022-10-19T10:51:36.799Z,43.94
2022-10-19T10:54:31.323Z,44.28
2022-10-19T10:57:16.695Z,44.29
2022-10-19T10:59:53.498Z,43.55
2022-10-19T11:02:41.461Z,40.54
2022-10-19T11:05:15.627Z,40.58
2022-10-19T11:07:45.906Z,39.59
2022-10-19T11:10:22.117Z,41.24
2022-10-19T11:12:56.335Z,41.18
2022-10-19T11:15:53.263Z,42.48
2022-10-19T11:18:26.775Z,42.29
2022-10-19T11:21:32.089Z,42.43
2022-10-19T11:24:36.022Z,41.14
2022-10-19T11:27:27.769Z,42.25
2022-10-19T11:30:10.315Z,42.58
2022-10-19T11:33:02.072Z,44.01
2022-10-19T11:35:53.208Z,45.03
2022-10-19T11:38:29.563Z,45.23
2022-10-19T11:41:19.138Z,46.33
2022-10-19T11:44:10.031Z,45.69
2022-10-19T11:46:52.786Z,45.39
2022-10-19T11:49:26.201Z,46.39
2022-10-19T11:52:10.446Z,46.21
2022-10-19T11:54:49.562Z,45.66
2022-10-19T11:57:42.212Z,46.08
2022-10-19T12:00:15.722Z,46.41
2022-10-19T12:03:19.479Z,46.02
2022-10-19T12:06:04.550Z,45.65
2022-10-19T12:09:12.891Z,46.00
2022-10-19T12:11:56.244Z,45.69
2022-10-19T12:14:26.824Z,45.95
2022-10-19T12:16:57.945Z,46.21
2022-10-19T12:19:29.280Z,45.88
2022-10-19T12:22:01.969Z,46.71
2022-10-19T12:24:30.787Z,45.83
2022-10-19T12:26:58.916Z,47.12
2022-10-19T12:29:28.953Z,48.20
2022-10-19T12:31:57.532Z,48.97
2022-10-19T12:34:34.070Z,49.70
2022-10-19T12:37:36.149Z,48.91
2022-10-19T12:40:41.793Z,48.85
2022-10-19T12:43:14.182Z,47.88
2022-10-19T12:46:11.094Z,47.38
2022-10-19T12:48:39.341Z,47.02
2022-10-19T12:51:15.049Z,45.68
2022-10-19T12:53:45.457Z,44.47
2022-10-19T12:56:17.903Z,44.89
2022-10-19T12:58:48.142Z,45.12
2022-10-19T13:01:26.387Z,44.45
2022-10-19T13:04:08.111Z,44.23
2022-10-19T13:06:37.326Z,43.21
2022-10-19T13:09:07.090Z,43.44
2022-10-19T13:11:36.452Z,42.70
2022-10-19T13:14:07.570Z,42.67
2022-10-19T13:16:40.176Z,43.95
2022-10-19T13:19:13.601Z,44.00
2022-10-19T13:21:59.582Z,43.64
2022-10-19T13:24:26.903Z,43.05
2022-10-19T13:27:03.551Z,43.09
2022-10-19T13:29:37.040Z,42.84
2022-10-19T13:32:37.934Z,42.34
2022-10-19T13:35:37.950Z,44.38
2022-10-19T13:38:22.538Z,44.51
2022-10-19T13:40:49.750Z,44.40
2022-10-19T13:43:30.065Z,43.82
2022-10-19T13:46:03.357Z,42.83
2022-10-19T13:48:43.056Z,43.37
2022-10-19T13:51:32.767Z,43.57
2022-10-19T13:54:12.726Z,43.84
2022-10-19T13:57:14.858Z,44.71
2022-10-19T14:00:07.147Z,45.14
2022-10-19T14:03:06.615Z,46.04
2022-10-19T14:05:58.788Z,45.14
2022-10-19T14:08:47.923Z,45.11
2022-10-19T14:11:19.062Z,45.18
2022-10-19T14:13:47.379Z,45.12
2022-10-19T14:16:20.922Z,42.21
2022-10-19T14:18:55.738Z,42.96
2022-10-19T14:21:33.931Z,43.24
2022-10-19T14:24:01.591Z,44.16
2022-10-19T14:26:30.985Z,44.01
2022-10-19T14:28:59.817Z,43.86
2022-10-19T14:31:35.371Z,43.93
2022-10-19T14:34:04.504Z,43.09
2022-10-19T14:36:36.647Z,43.79
2022-10-19T14:39:04.916Z,44.86
2022-10-19T14:41:38.437Z,45.50
2022-10-19T14:44:28.841Z,45.41
2022-10-19T14:46:56.570Z,45.78
2022-10-19T14:49:24.070Z,45.81
2022-10-19T14:51:54.850Z,45.84
2022-10-19T14:54:29.101Z,45.55
2022-10-19T14:57:00.620Z,45.88
2022-10-19T14:59:37.662Z,45.65
2022-10-19T15:02:36.856Z,45.56
2022-10-19T15:05:06.936Z,45.65
2022-10-19T15:07:39.882Z,45.35
2022-10-19T15:10:25.700Z,46.05
2022-10-19T15:13:00.636Z,46.91
2022-10-19T15:15:31.043Z,47.18
2022-10-19T15:18:01.440Z,47.81
2022-10-19T15:20:43.967Z,46.89
2022-10-19T15:23:42.699Z,46.91
2022-10-19T15:26:27.222Z,46.88
2022-10-19T15:28:56.467Z,47.11
2022-10-19T15:31:29.243Z,47.99
2022-10-19T15:34:01.342Z,48.14
2022-10-19T15:36:30.708Z,48.35
2022-10-19T15:39:11.268Z,48.21
2022-10-19T15:41:46.462Z,48.58
2022-10-19T15:44:33.693Z,48.13
2022-10-19T15:47:16.499Z,48.42
2022-10-19T15:49:44.371Z,49.02
2022-10-19T15:52:23.354Z,49.18
2022-10-19T15:54:52.626Z,49.01
2022-10-19T15:57:32.779Z,49.13
2022-10-19T16:00:08.312Z,49.58
2022-10-19T16:02:35.954Z,49.37
2022-10-19T16:05:03.329Z,49.05
2022-10-19T16:07:32.289Z,48.59
2022-10-19T16:10:00.336Z,48.57
2022-10-19T16:12:28.569Z,49.57
2022-10-19T16:14:56.341Z,50.27
2022-10-19T16:17:24.168Z,50.17
2022-10-19T16:19:51.624Z,50.19
2022-10-19T16:22:19.286Z,50.05
2022-10-19T16:24:47.234Z,49.92
2022-10-19T16:27:16.481Z,50.15
2022-10-19T16:29:44.975Z,50.42
2022-10-19T16:32:13.068Z,50.59
2022-10-19T16:34:41.385Z,50.14
2022-10-19T16:37:08.732Z,50.65
2022-10-19T16:39:36.616Z,50.00
2022-10-19T16:42:04.370Z,50.71
2022-10-19T16:44:31.863Z,50.67
2022-10-19T16:46:59.936Z,49.61
2022-10-19T16:49:27.877Z,50.13
2022-10-19T16:51:57.406Z,50.12
2022-10-19T16:54:32.742Z,49.72
2022-10-19T16:57:00.094Z,49.61
2022-10-19T16:59:28.013Z,50.20
2022-10-19T17:01:55.494Z,50.62
2022-10-19T17:04:23.319Z,49.91
2022-10-19T17:06:51.043Z,49.98
2022-10-19T17:12:07.377Z,49.75
2022-10-19T17:14:35.917Z,50.24
2022-10-19T17:17:03.552Z,51.59
2022-10-19T17:19:32.019Z,50.91
2022-10-19T17:22:00.177Z,50.86
2022-10-19T17:24:27.845Z,51.01
2022-10-19T17:26:55.811Z,51.94
2022-10-19T17:29:23.806Z,52.74
2022-10-19T17:31:51.586Z,52.71
2022-10-19T17:34:19.670Z,53.62
2022-10-19T17:36:47.747Z,53.66
2022-10-19T17:39:19.055Z,53.79
2022-10-19T17:41:48.768Z,53.98
2022-10-19T17:44:17.913Z,54.01
2022-10-19T17:46:46.048Z,54.35
2022-10-19T17:49:14.538Z,54.60
2022-10-19T17:51:42.951Z,54.14
2022-10-19T17:54:16.198Z,54.26
2022-10-19T17:56:46.958Z,54.19
2022-10-19T17:59:15.913Z,54.11
2022-10-19T18:01:43.828Z,53.21
2022-10-19T18:04:11.478Z,52.75
2022-10-19T18:06:39.250Z,53.50
2022-10-19T18:09:08.618Z,52.81
2022-10-19T18:11:42.233Z,52.70
2022-10-19T18:14:14.534Z,53.24
2022-10-19T18:16:45.783Z,53.71
2022-10-19T18:19:15.222Z,52.81
2022-10-19T18:21:45.522Z,52.25
2022-10-19T18:24:22.500Z,52.92
2022-10-19T18:26:51.448Z,53.56
2022-10-19T18:29:21.717Z,54.04
2022-10-19T18:31:51.968Z,54.03
2022-10-19T18:34:24.604Z,54.20
2022-10-19T18:36:52.825Z,53.64
2022-10-19T18:39:21.340Z,54.32
2022-10-19T18:41:54.903Z,54.36
2022-10-19T18:44:26.990Z,53.71
2022-10-19T18:46:56.841Z,54.05
2022-10-19T18:49:25.550Z,54.96
2022-10-19T18:51:55.700Z,54.77
2022-10-19T18:54:29.860Z,53.61
2022-10-19T18:56:58.038Z,52.82
2022-10-19T19:01:55.682Z,54.61
2022-10-19T19:04:23.143Z,53.71
2022-10-19T19:06:51.259Z,53.77
2022-10-19T19:09:20.018Z,52.94
2022-10-19T19:11:48.133Z,53.31
2022-10-19T19:14:18.635Z,51.62
2022-10-19T19:16:51.501Z,50.90
2022-10-19T19:19:20.264Z,50.84
2022-10-19T19:21:50.248Z,52.02
2022-10-19T19:24:20.856Z,52.97
2022-10-19T19:26:52.127Z,54.48
2022-10-19T19:29:21.033Z,55.99
2022-10-19T19:31:49.248Z,55.97
2022-10-19T19:34:18.123Z,57.35
2022-10-19T19:36:49.037Z,55.30
2022-10-19T19:39:19.730Z,55.16
2022-10-19T19:41:48.999Z,55.67
2022-10-19T19:44:17.489Z,56.05
2022-10-19T19:46:45.396Z,56.94
2022-10-19T19:49:13.288Z,58.00
2022-10-19T19:51:41.346Z,59.21
2022-10-19T19:54:09.164Z,59.83
2022-10-19T19:56:37.437Z,59.47
2022-10-19T19:59:05.456Z,59.76
2022-10-19T20:01:33.729Z,60.34
2022-10-19T20:06:36.783Z,58.49
2022-10-19T20:09:06.076Z,58.61
2022-10-19T20:11:36.081Z,57.08
2022-10-19T20:14:06.635Z,57.83
2022-10-19T20:16:34.733Z,57.57
2022-10-19T20:19:07.646Z,57.28
2022-10-19T20:21:36.379Z,57.19
2022-10-19T20:24:04.029Z,56.84
2022-10-19T20:26:31.911Z,58.41
2022-10-19T20:29:04.430Z,59.37
2022-10-19T20:31:33.730Z,59.55
2022-10-19T20:34:01.905Z,59.85
2022-10-19T20:36:29.455Z,59.26
2022-10-19T20:38:58.139Z,59.09
2022-10-19T20:41:27.933Z,59.69
2022-10-19T20:43:56.005Z,60.11
2022-10-19T20:46:26.908Z,60.46
2022-10-19T20:49:00.564Z,60.51
2022-10-19T20:51:31.954Z,59.80
2022-10-19T20:54:02.195Z,60.58
2022-10-19T20:56:33.302Z,61.09
2022-10-19T21:01:37.425Z,60.62
2022-10-19T21:04:09.468Z,60.48
2022-10-19T21:06:42.535Z,60.66
2022-10-19T21:09:11.155Z,62.79
2022-10-19T21:11:40.316Z,65.32
2022-10-19T21:14:13.236Z,65.97
2022-10-19T21:16:41.517Z,66.34
2022-10-19T21:19:13.114Z,67.08
2022-10-19T21:21:43.475Z,67.72
2022-10-19T21:24:14.201Z,67.55
2022-10-19T21:26:42.277Z,67.09
2022-10-19T21:29:11.020Z,67.02
2022-10-19T21:31:42.146Z,66.26
2022-10-19T21:34:14.126Z,65.84
2022-10-19T21:36:41.625Z,66.49
2022-10-19T21:39:09.030Z,66.45
2022-10-19T21:41:38.829Z,66.07
2022-10-19T21:44:06.207Z,66.76
2022-10-19T21:46:33.576Z,66.21
2022-10-19T21:49:01.192Z,66.37
2022-10-19T21:51:39.934Z,66.60
2022-10-19T21:56:44.143Z,66.92
2022-10-19T21:59:12.707Z,67.22
2022-10-19T22:01:41.437Z,67.19
2022-10-19T22:04:12.786Z,66.78
2022-10-19T22:06:40.667Z,67.29
2022-10-19T22:09:09.867Z,67.66
2022-10-19T22:11:37.458Z,68.52
2022-10-19T22:14:05.030Z,66.53
2022-10-19T22:16:33.655Z,67.17
2022-10-19T22:19:01.368Z,63.42
2022-10-19T22:21:30.384Z,65.67
2022-10-19T22:24:03.372Z,67.96
2022-10-19T22:26:33.525Z,67.82
2022-10-19T22:29:02.630Z,67.84
2022-10-19T22:31:31.088Z,68.42
2022-10-19T22:34:00.549Z,67.99
2022-10-19T22:36:28.181Z,67.88
2022-10-19T22:38:55.660Z,67.20
2022-10-19T22:42:19.854Z,68.14
2022-10-19T22:44:50.224Z,68.44
2022-10-19T22:47:17.936Z,68.13
2022-10-19T22:49:45.425Z,68.30
2022-10-19T22:52:12.920Z,69.13
2022-10-19T22:54:40.599Z,69.00
2022-10-19T22:57:08.064Z,68.85
2022-10-19T22:59:35.546Z,69.90
2022-10-19T23:02:03.645Z,70.82
2022-10-19T23:04:31.270Z,71.21
2022-10-19T23:06:58.656Z,71.12
2022-10-19T23:09:26.410Z,70.91
2022-10-19T23:11:53.794Z,71.52
2022-10-19T23:14:21.233Z,71.70
2022-10-19T23:16:49.008Z,72.16
2022-10-19T23:19:16.464Z,71.27
2022-10-19T23:21:43.845Z,72.29
2022-10-19T23:24:11.507Z,70.49
2022-10-19T23:26:38.885Z,70.47
2022-10-19T23:29:06.271Z,68.58
2022-10-19T23:31:34.064Z,65.30
2022-10-19T23:34:01.539Z,65.07
2022-10-19T23:36:29.303Z,68.03
2022-10-19T23:38:58.036Z,69.83
2022-10-19T23:41:25.404Z,69.77
2022-10-19T23:43:52.796Z,71.04
2022-10-19T23:46:20.404Z,71.39
2022-10-19T23:48:47.921Z,72.35
2022-10-19T23:51:17.825Z,72.43
2022-10-19T23:53:47.449Z,72.55
2022-10-19T23:56:18.555Z,71.97
2022-10-19T23:58:46.574Z,71.78
